Coffee Creek, Montana
Current Conditions -  °F | °C
As of 2:54 AM on Wednesday 26 Nov 2014 (Local Time) from KLWT Reporting Station
Light Snow Light Snow  
Wind Chill: 22°   Ceiling: 3900
Heat Index: 27°   Visibility: 3mi
Dew Point: 24°   Wind: 5mph
Humidity: 89%   Direction: 240°WSW
Pressure: 30.14"   Gusts: NA
Location:  47.34°N, 110.08°W
Report Text: KLWT 260954Z AUTO 24004KT 3SM -SN BR OVC039 M03/M04 A3014 RMK AO2 SLP237 P0001 T10281044
Loading
Personal Weather Stations






























Interactive Weather Map New forecast layout! Learn more

10-Day Weather Forecast

Advertisements
Track Severe Weather on mobile